logo
Search for airport 
image banner adimage banner adimage banner ad
image banner ad

SNLZ - Fazenda Boca Da Mata

Located in Divinopolis Do Tocantins, Brazil

ICAO - SNLZ, IATA -

Data provided by Airmate  

General information

Coordinates: S9°25'55" W49°35'28"
Elevation is 669 feet MSL.
Magnetic variation is -21.050824219° East
View others Airports in Tocatins

Operational data

Special qualification required
Current time UTC:
Current local time:
Weather at : - ( 0 km )
METAR: KXER 231725Z AUTO 26015G23KT 1 3/4SM BR 27/26 A3007 RMK A01
View NOTAMs / SUP AIP / TFR affecting this airport [VIEW]
Communications frequencies: [VIEW]

Runways:

RWY identifierQFULength (ft)Width (ft)SurfaceLDA (ft)
12393766ASPH
30393766ASPH

Airport contact information

Address: Divinopolis Do Tocantins Brazil

Satellite view of SNLZ